Time;durP1;ratioP1;P1;durP2;ratioP2;P2;SDS_P1;SDS_P2;PMS_P1;PMS_P2;Temp;Humidity;BMP_temperature;BMP_pressure;BME280_temperature;BME280_humidity;BME280_pressure;Samples;Min_cycle;Max_cycle;Signal;HPM_P1;HPM_P2
2021/10/28 00:14:15;;;;;;;35.33;14.85;;;8.40;99.90;;;;;;5054081;28;20063;-67
2021/10/28 00:16:42;;;;;;;32.10;16.33;;;8.40;99.90;;;;;;5053102;28;20033;-67
2021/10/28 00:19:08;;;;;;;38.22;17.40;;;8.30;99.90;;;;;;5054993;28;20025;-67
2021/10/28 00:21:37;;;;;;;33.28;14.80;;;8.30;99.90;;;;;;5065331;28;20082;-67
2021/10/28 00:24:06;;;;;;;36.28;16.85;;;8.40;99.90;;;;;;5066264;28;20025;-67
2021/10/28 00:26:34;;;;;;;35.10;17.42;;;8.40;99.90;;;;;;5067345;28;20437;-67
2021/10/28 00:29:06;;;;;;;44.80;16.60;;;8.40;99.90;;;;;;5061702;28;20086;-67
2021/10/28 00:31:35;;;;;;;38.47;17.60;;;8.20;99.90;;;;;;5065069;28;20052;-67
2021/10/28 00:34:02;;;;;;;36.47;15.30;;;8.20;99.90;;;;;;5065804;28;20783;-67
2021/10/28 00:36:28;;;;;;;36.65;16.02;;;8.30;99.90;;;;;;5070919;28;20029;-67
2021/10/28 00:38:54;;;;;;;36.53;18.27;;;8.20;99.90;;;;;;5072084;28;20486;-67
2021/10/28 00:41:22;;;;;;;37.53;16.88;;;8.30;99.90;;;;;;5066527;28;20024;-67
2021/10/28 00:43:54;;;;;;;35.38;16.55;;;8.30;99.90;;;;;;5063917;28;20527;-67
2021/10/28 00:46:29;;;;;;;43.10;16.77;;;8.30;99.90;;;;;;5058211;28;20117;-67
2021/10/28 00:48:55;;;;;;;32.95;15.73;;;8.30;99.90;;;;;;5071701;28;20036;-67
2021/10/28 00:51:25;;;;;;;39.38;17.13;;;8.20;99.90;;;;;;5071951;28;20028;-67
2021/10/28 00:53:52;;;;;;;38.67;16.90;;;8.20;99.90;;;;;;5060195;28;20154;-67
2021/10/28 00:56:20;;;;;;;33.47;15.85;;;8.20;99.90;;;;;;5070484;28;20027;-67
2021/10/28 00:58:46;;;;;;;35.28;15.77;;;8.10;99.90;;;;;;5059545;28;20043;-67
2021/10/28 01:01:12;;;;;;;37.78;16.23;;;8.10;99.90;;;;;;5062111;28;20036;-67
2021/10/28 01:03:39;;;;;;;39.58;17.73;;;8.10;99.90;;;;;;5069151;28;20013;-67
2021/10/28 01:06:06;;;;;;;31.60;13.48;;;8.10;99.90;;;;;;5062169;28;20040;-67
2021/10/28 01:08:33;;;;;;;37.55;15.57;;;8.20;99.90;;;;;;5064334;28;20032;-68
2021/10/28 01:10:59;;;;;;;36.13;15.65;;;8.20;99.90;;;;;;5061748;28;20363;-67
2021/10/28 01:13:25;;;;;;;35.17;15.50;;;8.20;99.90;;;;;;5070609;28;20029;-67
2021/10/28 01:15:53;;;;;;;37.72;17.02;;;8.30;99.90;;;;;;5052521;28;20147;-67
2021/10/28 01:18:19;;;;;;;35.15;16.10;;;8.30;99.90;;;;;;5067320;28;20031;-67
2021/10/28 01:20:49;;;;;;;36.35;16.42;;;8.30;99.90;;;;;;5064454;28;20040;-68
2021/10/28 01:23:16;;;;;;;36.45;16.05;;;8.20;99.90;;;;;;5066575;28;20016;-68
2021/10/28 01:25:56;;;;;;;32.83;16.20;;;8.30;99.90;;;;;;5065182;28;20025;-67
2021/10/28 01:28:24;;;;;;;36.33;15.57;;;8.30;99.90;;;;;;5067618;28;20032;-67
2021/10/28 01:30:53;;;;;;;38.67;17.25;;;8.30;99.90;;;;;;5060453;28;20041;-67
2021/10/28 01:33:20;;;;;;;35.65;16.63;;;8.40;99.90;;;;;;5056230;28;20166;-67
2021/10/28 01:35:46;;;;;;;39.90;15.05;;;8.30;99.90;;;;;;5057186;28;20020;-67
2021/10/28 01:38:14;;;;;;;38.50;16.05;;;8.30;99.90;;;;;;5063502;28;20111;-67
2021/10/28 01:40:41;;;;;;;40.50;16.07;;;8.30;99.90;;;;;;5062218;28;20499;-67
2021/10/28 01:43:07;;;;;;;37.20;15.90;;;8.30;99.90;;;;;;5059981;28;20055;-67
2021/10/28 01:45:34;;;;;;;37.22;16.38;;;8.30;99.90;;;;;;5048738;28;20111;-68
2021/10/28 01:48:00;;;;;;;37.47;17.50;;;8.20;99.90;;;;;;5047298;28;20028;-67
2021/10/28 01:50:28;;;;;;;36.50;16.05;;;8.30;99.90;;;;;;5049271;28;20210;-67
2021/10/28 01:52:54;;;;;;;38.42;16.05;;;8.30;99.90;;;;;;5049311;28;20121;-67
2021/10/28 01:55:20;;;;;;;35.92;15.50;;;8.30;99.90;;;;;;5061489;28;20040;-68
2021/10/28 01:57:46;;;;;;;37.58;16.27;;;8.30;99.90;;;;;;5070909;28;20057;-67
2021/10/28 02:00:15;;;;;;;39.25;16.23;;;8.20;99.90;;;;;;5063551;28;20363;-67
2021/10/28 02:02:42;;;;;;;37.95;15.90;;;8.30;99.90;;;;;;5067192;28;20474;-67
2021/10/28 02:05:14;;;;;;;34.47;14.00;;;8.20;99.90;;;;;;5060180;28;20108;-67
2021/10/28 02:07:40;;;;;;;33.05;15.10;;;8.20;99.90;;;;;;5066701;28;20047;-67
2021/10/28 02:10:07;;;;;;;35.47;16.38;;;8.20;99.90;;;;;;5068291;28;20028;-68
2021/10/28 02:12:34;;;;;;;33.07;14.67;;;8.10;99.90;;;;;;5067311;28;20029;-67
2021/10/28 02:15:00;;;;;;;29.23;14.38;;;8.10;99.90;;;;;;5059775;28;20493;-67
2021/10/28 02:17:26;;;;;;;32.25;14.23;;;8.10;99.90;;;;;;5062440;28;20025;-67
2021/10/28 02:19:51;;;;;;;35.17;15.20;;;8.10;99.90;;;;;;5061052;28;20653;-67
2021/10/28 02:22:17;;;;;;;27.17;13.98;;;8.10;99.90;;;;;;5065903;28;20035;-67
2021/10/28 02:24:43;;;;;;;32.05;14.35;;;8.00;99.90;;;;;;5071834;28;20477;-67
2021/10/28 02:27:08;;;;;;;32.38;14.15;;;8.00;99.90;;;;;;5066508;28;20024;-67
2021/10/28 02:29:34;;;;;;;30.70;14.30;;;8.00;99.90;;;;;;5059820;28;20033;-67
2021/10/28 02:32:00;;;;;;;33.92;14.65;;;8.00;99.90;;;;;;5060355;28;20055;-67
2021/10/28 02:34:26;;;;;;;33.60;14.68;;;8.00;99.90;;;;;;5055458;28;20037;-67
2021/10/28 02:36:51;;;;;;;33.42;15.48;;;8.00;99.90;;;;;;5054169;28;20108;-67
2021/10/28 02:39:17;;;;;;;37.17;16.27;;;8.00;99.90;;;;;;5064272;28;20052;-67
2021/10/28 02:41:43;;;;;;;34.10;15.13;;;8.00;99.90;;;;;;5068913;28;20028;-67
2021/10/28 02:44:10;;;;;;;33.45;14.13;;;8.00;99.90;;;;;;5060561;28;20029;-67
2021/10/28 02:46:38;;;;;;;37.08;15.90;;;8.00;99.90;;;;;;5062773;28;20386;-67
2021/10/28 02:49:04;;;;;;;36.63;14.50;;;8.00;99.90;;;;;;5068542;28;20032;-67
2021/10/28 02:51:30;;;;;;;38.58;14.93;;;8.00;99.90;;;;;;5062757;28;20029;-67
2021/10/28 02:53:56;;;;;;;33.90;15.07;;;8.00;99.90;;;;;;5064523;28;20090;-67
2021/10/28 02:56:21;;;;;;;35.75;14.23;;;8.00;99.90;;;;;;5064287;28;20119;-68
2021/10/28 02:58:47;;;;;;;36.65;14.60;;;8.00;99.90;;;;;;5063360;28;20025;-67
2021/10/28 03:01:13;;;;;;;31.42;14.38;;;8.00;99.90;;;;;;5066406;28;20473;-67
2021/10/28 03:03:39;;;;;;;32.92;14.00;;;8.00;99.90;;;;;;5061612;28;20055;-67
2021/10/28 03:06:06;;;;;;;35.70;15.07;;;8.10;99.90;;;;;;5066138;28;20107;-67
2021/10/28 03:08:33;;;;;;;32.75;14.40;;;8.00;99.90;;;;;;5066030;28;20020;-67
2021/10/28 03:11:00;;;;;;;31.05;14.15;;;8.00;99.90;;;;;;5068196;28;20485;-67
2021/10/28 03:13:28;;;;;;;33.30;14.60;;;8.00;99.90;;;;;;5064128;28;20035;-67
2021/10/28 03:15:54;;;;;;;33.53;13.75;;;8.00;99.90;;;;;;5066197;28;20048;-67
2021/10/28 03:26:32;;;;;;;34.05;15.18;;;8.00;99.90;;;;;;5049491;28;20151;-67
2021/10/28 03:28:58;;;;;;;37.30;15.52;;;7.90;99.90;;;;;;5059570;28;20405;-67
2021/10/28 03:31:24;;;;;;;37.42;15.02;;;7.90;99.90;;;;;;5049139;28;20028;-67
2021/10/28 03:33:50;;;;;;;33.10;15.05;;;7.90;99.90;;;;;;5049145;28;20072;-67
2021/10/28 03:39:40;;;;;;;27.83;12.98;;;8.00;99.90;;;;;;5030927;28;20060;-67
2021/10/28 04:00:40;;;;;;;28.70;11.93;;;8.00;99.90;;;;;;5055350;28;20124;-68
2021/10/28 04:06:11;;;;;;;29.73;13.27;;;8.00;99.90;;;;;;5056425;28;20054;-67
2021/10/28 04:30:22;;;;;;;26.05;12.40;;;7.70;99.90;;;;;;5077106;28;20020;-67
2021/10/28 04:32:49;;;;;;;22.10;11.25;;;7.70;99.90;;;;;;5049309;28;20053;-68
2021/10/28 04:35:15;;;;;;;25.13;11.95;;;7.80;99.90;;;;;;5037827;28;20112;-67
2021/10/28 04:37:43;;;;;;;24.98;11.20;;;7.70;99.90;;;;;;5044299;28;20163;-67
2021/10/28 04:40:09;;;;;;;23.88;11.75;;;7.70;99.90;;;;;;5063437;28;20457;-67
2021/10/28 04:42:35;;;;;;;24.58;12.43;;;7.70;99.90;;;;;;5042434;28;20029;-67
2021/10/28 04:45:00;;;;;;;25.67;12.43;;;7.70;99.90;;;;;;5046224;28;20075;-67
2021/10/28 04:47:26;;;;;;;19.88;11.20;;;7.80;99.90;;;;;;5047837;28;20474;-67
2021/10/28 04:49:52;;;;;;;24.88;11.95;;;7.80;99.90;;;;;;5052728;28;20045;-67
2021/10/28 04:52:20;;;;;;;24.42;10.90;;;7.80;99.90;;;;;;5050631;28;20029;-67
2021/10/28 04:54:46;;;;;;;26.83;11.70;;;7.70;99.90;;;;;;5063077;28;20052;-67
2021/10/28 04:57:12;;;;;;;24.13;11.20;;;7.70;99.90;;;;;;5043431;28;20293;-67
2021/10/28 04:59:37;;;;;;;22.25;11.77;;;7.70;99.90;;;;;;5045456;28;20021;-68
2021/10/28 05:02:03;;;;;;;22.25;11.60;;;7.70;99.90;;;;;;5056158;28;20033;-67
2021/10/28 05:04:29;;;;;;;22.63;10.95;;;7.70;99.90;;;;;;5065213;28;20029;-67
2021/10/28 05:06:54;;;;;;;27.27;11.93;;;7.70;99.90;;;;;;5064793;28;21133;-67
2021/10/28 05:09:30;;;;;;;22.58;10.52;;;7.70;99.90;;;;;;5064781;28;20024;-67
2021/10/28 05:11:56;;;;;;;22.25;11.00;;;7.70;99.90;;;;;;5066164;28;20020;-67
2021/10/28 05:14:22;;;;;;;18.33;9.85;;;7.70;99.90;;;;;;5091343;28;20098;-67
2021/10/28 05:16:51;;;;;;;18.73;10.35;;;7.70;99.90;;;;;;5066328;28;20056;-68
2021/10/28 05:19:17;;;;;;;22.42;10.75;;;7.60;99.90;;;;;;5065088;28;20457;-67
2021/10/28 05:21:42;;;;;;;18.38;10.43;;;7.70;99.90;;;;;;5059848;28;20111;-67
2021/10/28 05:24:08;;;;;;;17.95;9.93;;;7.60;99.90;;;;;;5052473;28;20793;-68
2021/10/28 05:26:34;;;;;;;22.15;10.88;;;7.60;99.90;;;;;;5063576;28;20028;-67
2021/10/28 05:28:59;;;;;;;21.33;10.10;;;7.50;99.90;;;;;;5065316;28;20037;-67
2021/10/28 05:31:25;;;;;;;25.63;11.15;;;7.50;99.90;;;;;;5048205;28;20039;-67
2021/10/28 05:33:51;;;;;;;20.00;10.38;;;7.50;99.90;;;;;;5065374;28;20029;-67
2021/10/28 05:36:16;;;;;;;24.65;10.82;;;7.50;99.90;;;;;;5057703;28;20028;-68
2021/10/28 05:38:42;;;;;;;19.90;9.95;;;7.40;99.90;;;;;;5060784;28;20055;-67
2021/10/28 05:41:08;;;;;;;21.60;10.80;;;7.40;99.90;;;;;;5063559;28;20067;-67
2021/10/28 05:43:34;;;;;;;20.85;9.60;;;7.30;99.90;;;;;;5063909;28;20028;-67
2021/10/28 05:45:59;;;;;;;19.58;9.80;;;7.30;99.90;;;;;;5063701;28;20398;-68
2021/10/28 05:48:25;;;;;;;25.35;21.40;;;7.30;99.90;;;;;;5062737;28;20032;-68
2021/10/28 05:50:51;;;;;;;36.90;30.42;;;7.40;99.90;;;;;;5068699;28;20028;-67
2021/10/28 05:53:17;;;;;;;25.42;16.40;;;7.40;99.90;;;;;;5056072;28;20028;-67
2021/10/28 05:55:43;;;;;;;26.23;16.05;;;7.40;99.90;;;;;;5065027;28;20021;-67
2021/10/28 05:58:09;;;;;;;24.85;13.93;;;7.50;99.90;;;;;;5062167;28;20033;-67
2021/10/28 06:00:34;;;;;;;23.13;12.02;;;7.50;99.90;;;;;;5059615;28;20131;-67
2021/10/28 06:03:00;;;;;;;19.30;9.80;;;7.50;99.90;;;;;;5058788;28;20505;-67
2021/10/28 06:05:26;;;;;;;19.85;10.93;;;7.50;99.90;;;;;;5056758;28;20044;-67
2021/10/28 06:07:51;;;;;;;23.20;10.18;;;7.50;99.90;;;;;;5063808;28;20030;-68
2021/10/28 06:10:18;;;;;;;21.20;10.68;;;7.40;99.90;;;;;;5070019;28;20103;-69
2021/10/28 06:12:48;;;;;;;21.52;10.30;;;7.40;99.90;;;;;;5070471;28;20107;-67
2021/10/28 06:15:14;;;;;;;23.40;11.40;;;7.50;99.90;;;;;;5066302;28;20045;-68
2021/10/28 06:18:00;;;;;;;21.90;10.82;;;7.50;99.90;;;;;;5059496;28;20024;-67
2021/10/28 06:20:26;;;;;;;23.05;11.35;;;7.50;99.90;;;;;;5050390;28;20113;-67
2021/10/28 06:22:52;;;;;;;25.45;10.55;;;7.50;99.90;;;;;;5059896;28;20027;-68
2021/10/28 06:25:19;;;;;;;21.70;10.95;;;7.50;99.90;;;;;;5065945;28;20032;-68
2021/10/28 06:27:45;;;;;;;23.58;12.52;;;7.50;99.90;;;;;;5061298;28;20033;-68
2021/10/28 06:30:11;;;;;;;28.65;11.82;;;7.50;99.90;;;;;;5069861;28;20131;-68
2021/10/28 06:32:52;;;;;;;23.08;11.75;;;7.50;99.90;;;;;;5063074;28;20502;-68
2021/10/28 06:35:17;;;;;;;23.80;12.00;;;7.40;99.90;;;;;;5059191;28;20036;-68
2021/10/28 06:37:48;;;;;;;25.48;11.52;;;7.40;99.90;;;;;;5066388;28;20028;-68
2021/10/28 06:40:15;;;;;;;23.20;11.30;;;7.40;99.90;;;;;;5062554;28;20017;-68
2021/10/28 06:42:41;;;;;;;25.02;12.32;;;7.40;99.90;;;;;;5054624;28;20560;-68
2021/10/28 06:45:07;;;;;;;23.25;11.48;;;7.40;99.90;;;;;;5060597;28;20059;-68
2021/10/28 06:47:33;;;;;;;22.30;11.10;;;7.50;99.90;;;;;;5068976;28;20025;-68
2021/10/28 06:50:11;;;;;;;19.95;10.27;;;7.40;99.90;;;;;;5066038;28;20101;-68
2021/10/28 06:52:58;;;;;;;26.05;11.32;;;7.50;99.90;;;;;;5062136;28;20021;-68
2021/10/28 07:03:28;;;;;;;25.63;12.57;;;7.50;99.90;;;;;;5068018;28;20090;-68
2021/10/28 07:06:09;;;;;;;29.33;12.45;;;7.50;99.90;;;;;;5068818;28;20067;-68
2021/10/28 07:08:37;;;;;;;27.13;13.18;;;7.50;99.90;;;;;;5063282;28;20028;-68
2021/10/28 07:11:07;;;;;;;;;;;7.50;99.90;;;;;;5065551;28;20418;-69
2021/10/28 07:13:34;;;;;;;28.88;13.18;;;7.50;99.90;;;;;;5061393;28;20285;-68
2021/10/28 07:16:11;;;;;;;28.35;13.35;;;7.50;99.90;;;;;;5068074;28;20128;-68
2021/10/28 07:39:48;;;;;;;30.27;12.70;;;7.60;99.90;;;;;;5073271;28;20033;-69
2021/10/28 08:28:46;;;;;;;19.38;10.18;;;7.20;99.90;;;;;;5072422;28;20055;-69
2021/10/28 08:31:15;;;;;;;18.08;9.82;;;7.20;99.90;;;;;;5067743;28;20099;-68
2021/10/28 08:33:41;;;;;;;19.17;11.00;;;7.30;99.90;;;;;;5059864;28;20032;-68
2021/10/28 08:36:08;;;;;;;17.30;9.27;;;7.20;99.90;;;;;;5072622;28;20028;-69
2021/10/28 08:38:38;;;;;;;17.83;9.25;;;7.20;99.90;;;;;;5071643;28;20066;-68
2021/10/28 08:41:10;;;;;;;16.42;9.60;;;7.20;99.90;;;;;;5068201;28;20473;-68
2021/10/28 08:43:41;;;;;;;16.92;9.23;;;7.20;99.90;;;;;;5065354;28;20032;-68
2021/10/28 08:46:08;;;;;;;20.08;10.68;;;7.20;99.90;;;;;;5055472;28;20028;-68
2021/10/28 08:48:36;;;;;;;20.15;10.15;;;7.20;99.90;;;;;;5055194;28;20490;-70
2021/10/28 08:51:06;;;;;;;17.77;10.45;;;7.20;99.90;;;;;;5052062;28;20025;-69
2021/10/28 08:56:00;;;;;;;14.25;9.55;;;7.20;99.90;;;;;;5048258;28;20083;-68
2021/10/28 09:26:53;;;;;;;15.82;9.35;;;7.50;99.90;;;;;;5054383;28;20033;-69
2021/10/28 09:35:06;;;;;;;15.93;9.00;;;7.50;99.90;;;;;;5053730;28;20509;-68
2021/10/28 09:43:39;;;;;;;15.85;9.43;;;7.60;99.90;;;;;;5048407;28;20043;-69
2021/10/28 09:51:45;;;;;;;16.65;9.60;;;7.80;99.90;;;;;;5054885;28;20296;-69
2021/10/28 09:59:54;;;;;;;15.70;9.80;;;8.10;99.90;;;;;;5039924;28;20025;-69
2021/10/28 10:05:17;;;;;;;15.82;8.77;;;8.20;99.90;;;;;;5070125;28;20115;-68
2021/10/28 10:07:47;;;;;;;15.80;8.55;;;8.30;99.90;;;;;;5085871;28;20064;-68
2021/10/28 10:10:20;;;;;;;13.90;8.85;;;8.30;99.90;;;;;;5063972;28;20033;-69
2021/10/28 10:12:47;;;;;;;13.05;8.18;;;8.30;99.90;;;;;;5064915;28;20028;-69
2021/10/28 10:15:14;;;;;;;17.10;9.18;;;8.40;99.90;;;;;;5066292;28;20037;-69
2021/10/28 10:17:42;;;;;;;16.45;8.70;;;8.40;99.90;;;;;;5061078;28;20536;-69
2021/10/28 10:20:13;;;;;;;14.00;7.88;;;8.40;99.90;;;;;;5064016;28;20021;-69
2021/10/28 10:22:56;;;;;;;14.88;8.50;;;8.50;99.90;;;;;;5056710;28;20389;-69
2021/10/28 10:28:54;;;;;;;17.50;7.78;;;8.50;99.90;;;;;;5056090;28;20965;-69
2021/10/28 12:44:16;;;;;;;11.40;7.38;;;11.10;93.20;;;;;;5057178;28;20113;-69
2021/10/28 12:47:12;;;;;;;11.10;6.32;;;11.00;92.80;;;;;;5060880;28;20032;-69
2021/10/28 12:55:11;;;;;;;11.50;6.70;;;11.20;91.60;;;;;;5065714;28;20029;-69
2021/10/28 13:50:13;;;;;;;8.85;6.88;;;11.80;90.80;;;;;;5066060;28;20805;-69
2021/10/28 14:36:12;;;;;;;9.45;5.22;;;14.70;78.20;;;;;;5060205;28;20031;-68
2021/10/28 15:30:25;;;;;;;11.45;6.78;;;13.40;82.00;;;;;;5058265;28;20159;-67
2021/10/28 15:35:55;;;;;;;;;;;13.20;81.20;;;;;;5060955;28;20044;-68
2021/10/28 15:38:31;;;;;;;10.75;7.03;;;13.00;81.90;;;;;;5059093;28;19940;-68
2021/10/28 15:56:32;;;;;;;12.50;7.50;;;12.50;83.90;;;;;;5073299;28;20358;-68
2021/10/28 16:21:47;;;;;;;10.50;6.20;;;12.30;84.60;;;;;;5072905;28;20028;-68
2021/10/28 16:23:45;;;;;;;11.70;7.95;;;11.20;90.00;;;;;;5068792;28;20036;-68
2021/10/28 16:26:11;;;;;;;11.98;7.78;;;11.10;90.20;;;;;;5059825;28;20037;-68
2021/10/28 16:28:37;;;;;;;13.75;7.55;;;11.10;90.10;;;;;;5070709;28;20031;-68
2021/10/28 16:31:03;;;;;;;13.45;8.38;;;10.90;90.30;;;;;;5069821;28;20033;-68
2021/10/28 16:33:28;;;;;;;9.40;7.03;;;10.90;90.80;;;;;;5072939;28;20028;-68
2021/10/28 16:35:54;;;;;;;11.45;7.78;;;10.70;89.80;;;;;;5071192;28;20028;-68
2021/10/28 16:38:23;;;;;;;14.35;9.10;;;10.50;90.60;;;;;;5068007;28;20035;-68
2021/10/28 16:40:48;;;;;;;18.02;10.23;;;10.40;91.40;;;;;;5060982;28;20024;-68
2021/10/28 16:43:14;;;;;;;16.52;10.73;;;10.20;92.20;;;;;;5072593;28;20397;-68
2021/10/28 16:45:44;;;;;;;17.80;11.38;;;10.20;93.10;;;;;;5070015;28;20032;-69
2021/10/28 16:48:09;;;;;;;21.27;10.95;;;10.10;93.30;;;;;;5066596;28;20032;-69
2021/10/28 16:50:35;;;;;;;21.45;12.88;;;10.00;93.30;;;;;;5070595;28;20035;-68
2021/10/28 16:53:02;;;;;;;26.20;12.68;;;9.90;93.60;;;;;;5062934;28;20028;-68
2021/10/28 16:55:28;;;;;;;23.42;13.05;;;9.80;94.30;;;;;;5067145;28;20107;-68
2021/10/28 16:57:53;;;;;;;24.27;13.30;;;9.80;95.00;;;;;;5070155;28;20012;-68
2021/10/28 17:00:19;;;;;;;19.75;13.32;;;9.70;95.30;;;;;;5063722;28;20032;-68
2021/10/28 17:02:45;;;;;;;21.70;11.55;;;9.70;95.80;;;;;;5066926;28;20071;-67
2021/10/28 17:05:12;;;;;;;22.15;11.85;;;9.70;95.90;;;;;;5072788;28;20050;-68
2021/10/28 17:07:38;;;;;;;19.98;11.82;;;9.70;95.40;;;;;;5083322;28;20052;-68
2021/10/28 17:10:04;;;;;;;20.52;11.90;;;9.60;95.80;;;;;;5060233;28;20060;-67
2021/10/28 17:12:30;;;;;;;18.00;10.98;;;9.60;95.40;;;;;;5061836;28;20051;-68
2021/10/28 17:14:56;;;;;;;21.25;11.48;;;9.50;94.70;;;;;;5063134;28;20044;-68
2021/10/28 17:17:22;;;;;;;18.83;11.32;;;9.30;95.40;;;;;;5071386;28;20016;-68
2021/10/28 17:19:48;;;;;;;22.88;12.48;;;9.20;95.90;;;;;;5068702;28;20748;-68
2021/10/28 17:22:14;;;;;;;21.35;12.35;;;9.20;96.60;;;;;;5068564;28;20075;-68
2021/10/28 17:24:49;;;;;;;20.27;12.40;;;9.20;97.00;;;;;;5077214;28;20473;-68
2021/10/28 17:27:15;;;;;;;19.35;11.75;;;9.20;96.70;;;;;;5068844;28;20492;-68
2021/10/28 17:29:41;;;;;;;21.85;12.27;;;9.10;97.10;;;;;;5065341;28;20028;-69
2021/10/28 17:32:08;;;;;;;23.17;11.73;;;9.10;97.30;;;;;;5064496;28;20059;-69
2021/10/28 17:34:34;;;;;;;21.05;12.35;;;9.20;97.10;;;;;;5067573;28;20020;-68
2021/10/28 17:37:01;;;;;;;24.30;12.77;;;9.20;97.00;;;;;;5068841;28;20047;-68
2021/10/28 17:39:27;;;;;;;25.15;14.63;;;9.20;97.10;;;;;;5056070;28;20128;-69
2021/10/28 17:41:57;;;;;;;27.05;13.77;;;9.10;97.10;;;;;;5052234;28;20615;-69
2021/10/28 17:44:26;;;;;;;25.92;13.27;;;9.10;97.40;;;;;;5055169;28;20800;-69
2021/10/28 17:46:51;;;;;;;20.80;12.07;;;9.10;97.00;;;;;;5052220;28;20317;-68
2021/10/28 17:49:17;;;;;;;24.50;12.43;;;9.00;96.90;;;;;;5054159;28;20036;-68
2021/10/28 17:51:43;;;;;;;19.52;13.02;;;8.90;97.30;;;;;;5051985;28;20033;-68
2021/10/28 17:54:10;;;;;;;24.70;12.35;;;8.80;97.80;;;;;;5056221;28;20051;-68
2021/10/28 17:56:39;;;;;;;22.97;12.30;;;8.70;98.10;;;;;;5054200;28;20032;-68
2021/10/28 17:59:05;;;;;;;;;;;8.70;98.40;;;;;;5052798;28;20052;-68
2021/10/28 18:01:32;;;;;;;27.52;12.63;;;8.60;98.70;;;;;;5052916;28;19912;-68
2021/10/28 18:04:00;;;;;;;30.27;14.27;;;8.50;98.60;;;;;;5057566;28;20830;-68
2021/10/28 18:06:27;;;;;;;28.27;14.85;;;8.50;98.70;;;;;;5052480;28;20055;-68
2021/10/28 18:08:53;;;;;;;24.67;13.93;;;8.40;98.90;;;;;;5051603;28;20066;-68
2021/10/28 18:11:19;;;;;;;28.00;14.18;;;8.30;99.40;;;;;;5052322;28;20425;-68
2021/10/28 18:13:44;;;;;;;25.80;13.85;;;8.30;99.40;;;;;;5053385;28;20485;-68
2021/10/28 18:16:10;;;;;;;24.15;13.05;;;8.30;99.20;;;;;;5048921;28;20036;-68
2021/10/28 18:18:37;;;;;;;26.75;13.50;;;8.30;99.30;;;;;;5053445;28;20040;-68
2021/10/28 18:21:03;;;;;;;27.85;14.45;;;8.20;99.20;;;;;;5053027;28;20493;-68
2021/10/28 18:23:31;;;;;;;27.52;13.48;;;8.10;99.40;;;;;;5049383;28;20507;-68
2021/10/28 18:25:57;;;;;;;26.50;13.98;;;8.10;99.50;;;;;;5050169;28;20035;-68
2021/10/28 18:28:23;;;;;;;26.70;13.60;;;8.10;99.80;;;;;;5052697;28;20451;-68
2021/10/28 18:30:48;;;;;;;26.58;14.32;;;8.00;99.90;;;;;;5052517;28;20132;-69
2021/10/28 18:33:14;;;;;;;25.70;13.27;;;8.00;99.90;;;;;;5053491;28;20027;-68
2021/10/28 18:35:41;;;;;;;32.38;17.00;;;7.90;99.90;;;;;;5051723;28;20029;-68
2021/10/28 18:38:10;;;;;;;26.55;14.10;;;7.80;99.90;;;;;;5053400;28;20021;-68
2021/10/28 18:40:36;;;;;;;28.00;14.10;;;7.80;99.90;;;;;;5050461;28;20151;-68
2021/10/28 18:43:03;;;;;;;24.48;12.90;;;7.80;99.90;;;;;;5050372;28;20067;-68
2021/10/28 18:45:30;;;;;;;25.52;13.10;;;7.80;99.90;;;;;;5052980;28;20032;-68
2021/10/28 18:47:55;;;;;;;23.73;13.43;;;7.70;99.90;;;;;;5067061;28;20055;-68
2021/10/28 18:50:22;;;;;;;25.13;13.13;;;7.70;99.90;;;;;;5051289;28;20036;-68
2021/10/28 18:52:47;;;;;;;25.13;13.85;;;7.70;99.90;;;;;;5052274;28;20485;-69
2021/10/28 18:55:13;;;;;;;27.27;14.57;;;7.60;99.90;;;;;;5049217;28;20036;-68
2021/10/28 18:57:39;;;;;;;27.17;14.43;;;7.50;99.90;;;;;;5054122;28;20043;-68
2021/10/28 19:00:07;;;;;;;19.55;11.15;;;7.60;99.90;;;;;;5051207;28;20035;-68
2021/10/28 19:02:34;;;;;;;22.15;11.65;;;7.40;96.60;;;;;;5051925;28;20119;-68
2021/10/28 19:05:00;;;;;;;21.92;12.40;;;7.10;97.90;;;;;;5052533;28;20051;-68
2021/10/28 19:07:27;;;;;;;25.15;12.70;;;7.10;98.70;;;;;;5050588;28;20048;-68
2021/10/28 19:09:53;;;;;;;27.83;14.32;;;7.10;99.90;;;;;;5049666;28;20024;-68
2021/10/28 19:12:19;;;;;;;27.48;13.60;;;7.10;99.90;;;;;;5049051;28;20032;-68
2021/10/28 19:14:45;;;;;;;24.15;14.00;;;7.10;99.90;;;;;;5048874;28;20054;-69
2021/10/28 19:17:11;;;;;;;30.27;15.43;;;7.10;99.90;;;;;;5049531;28;20119;-68
2021/10/28 19:19:38;;;;;;;29.27;15.60;;;7.10;99.90;;;;;;5052518;28;20032;-68
2021/10/28 19:22:04;;;;;;;25.38;14.90;;;7.10;99.90;;;;;;5050216;28;20660;-68
2021/10/28 19:24:30;;;;;;;32.83;15.50;;;7.10;99.90;;;;;;5047903;28;20076;-68
2021/10/28 19:26:56;;;;;;;27.40;13.73;;;7.20;99.90;;;;;;5047185;28;20123;-68
2021/10/28 19:29:23;;;;;;;34.38;11.75;;;7.20;99.90;;;;;;5046405;28;20517;-68
2021/10/28 19:31:54;;;;;;;15.20;7.13;;;6.90;95.30;;;;;;5051565;28;21602;-68
2021/10/28 19:34:19;;;;;;;8.75;6.22;;;6.60;94.30;;;;;;5051414;28;20064;-68
2021/10/28 19:39:44;;;;;;;21.85;12.02;;;5.80;94.20;;;;;;5055288;28;20032;-68
2021/10/28 19:47:21;;;;;;;25.98;14.55;;;6.00;99.90;;;;;;5052036;28;20784;-68
2021/10/28 19:49:47;;;;;;;28.20;14.45;;;6.10;99.90;;;;;;5049701;28;20032;-69
2021/10/28 19:52:15;;;;;;;24.52;14.02;;;6.10;99.90;;;;;;5049730;28;20038;-68
2021/10/28 19:54:42;;;;;;;27.10;13.98;;;6.00;99.90;;;;;;5047362;28;20039;-68
2021/10/28 19:57:14;;;;;;;26.23;14.82;;;6.00;99.90;;;;;;5044925;28;20040;-68
2021/10/28 19:59:45;;;;;;;26.67;13.35;;;6.00;99.90;;;;;;5044804;28;20435;-68
2021/10/28 20:02:17;;;;;;;26.90;13.93;;;6.00;99.90;;;;;;5046731;28;20143;-69
2021/10/28 20:05:09;;;;;;;25.17;14.05;;;6.00;99.90;;;;;;5049067;28;20070;-68
2021/10/28 20:21:00;;;;;;;55.50;12.57;;;5.60;99.90;;;;;;5051059;28;20392;-68
2021/10/28 20:23:27;;;;;;;107.85;18.48;;;5.60;99.90;;;;;;5048917;28;22442;-69
2021/10/28 20:25:52;;;;;;;151.98;17.75;;;5.50;99.90;;;;;;5051829;28;20370;-68
2021/10/28 20:28:18;;;;;;;57.72;12.00;;;5.40;99.90;;;;;;5049756;28;20039;-68
2021/10/28 20:30:53;;;;;;;65.30;13.88;;;5.30;99.90;;;;;;5045833;28;20044;-68
2021/10/28 20:33:20;;;;;;;106.43;16.23;;;5.20;99.90;;;;;;5040746;28;20023;-68
2021/10/28 20:38:30;;;;;;;51.92;12.57;;;5.10;99.90;;;;;;5042545;28;20075;-68
2021/10/28 20:40:56;;;;;;;35.70;12.57;;;5.10;99.90;;;;;;5045848;28;20521;-68
2021/10/28 20:43:22;;;;;;;93.22;15.15;;;5.10;99.90;;;;;;5041912;28;20032;-68
2021/10/28 20:45:48;;;;;;;47.42;11.73;;;5.20;99.90;;;;;;5045611;28;20033;-68
2021/10/28 20:48:14;;;;;;;86.13;15.63;;;5.10;99.90;;;;;;5043177;28;20032;-69
2021/10/28 20:50:40;;;;;;;33.03;11.27;;;5.10;99.90;;;;;;5043246;28;20033;-69
2021/10/28 20:53:06;;;;;;;57.92;12.02;;;5.20;99.90;;;;;;5046999;28;20037;-68
2021/10/28 20:55:33;;;;;;;38.45;11.13;;;5.20;99.90;;;;;;5046879;28;20482;-68
2021/10/28 20:57:59;;;;;;;30.77;11.52;;;5.30;99.90;;;;;;5044087;28;20454;-68
2021/10/28 21:00:25;;;;;;;53.72;12.60;;;5.30;99.90;;;;;;5043998;28;20055;-68
2021/10/28 21:02:51;;;;;;;57.85;11.30;;;5.30;99.90;;;;;;5044139;28;20059;-68
2021/10/28 21:05:21;;;;;;;44.00;13.07;;;5.40;99.90;;;;;;5046287;28;20036;-68
2021/10/28 21:07:49;;;;;;;69.03;14.60;;;5.40;99.90;;;;;;5047590;28;20028;-68
2021/10/28 21:10:17;;;;;;;73.72;16.23;;;5.50;99.90;;;;;;5043884;28;20028;-68
2021/10/28 21:12:43;;;;;;;36.22;13.27;;;5.40;99.90;;;;;;5050690;28;20119;-68
2021/10/28 21:15:11;;;;;;;91.40;13.93;;;5.50;99.90;;;;;;5046616;28;20506;-68
2021/10/28 21:17:36;;;;;;;78.07;15.35;;;5.60;99.90;;;;;;5049506;28;20484;-68
2021/10/28 21:20:04;;;;;;;52.63;13.23;;;5.60;99.90;;;;;;5045224;28;20024;-68
2021/10/28 21:22:30;;;;;;;80.85;17.17;;;5.60;99.90;;;;;;5047210;28;20033;-68
2021/10/28 21:24:56;;;;;;;32.60;14.38;;;5.70;99.90;;;;;;5048367;28;20071;-68
2021/10/28 21:27:22;;;;;;;117.57;17.58;;;5.70;99.90;;;;;;5043190;28;20033;-69
2021/10/28 21:29:48;;;;;;;37.85;12.77;;;5.70;99.90;;;;;;5041058;28;20037;-68
2021/10/28 21:32:14;;;;;;;98.40;17.13;;;5.80;99.90;;;;;;5044413;28;20029;-68
2021/10/28 21:34:42;;;;;;;32.78;12.93;;;5.80;99.90;;;;;;5044457;28;20115;-69
2021/10/28 21:37:10;;;;;;;62.80;14.75;;;5.80;99.90;;;;;;5046007;28;20086;-68
2021/10/28 21:39:36;;;;;;;42.92;13.90;;;5.80;99.90;;;;;;5046541;28;20029;-69
2021/10/28 21:42:02;;;;;;;53.03;14.60;;;5.80;99.90;;;;;;5047753;28;21640;-68
2021/10/28 21:44:29;;;;;;;53.72;14.07;;;5.80;99.90;;;;;;5042588;28;20098;-68
2021/10/28 21:46:54;;;;;;;37.30;12.90;;;5.80;99.90;;;;;;5047731;28;20485;-68
2021/10/28 21:49:20;;;;;;;40.95;13.30;;;5.80;99.90;;;;;;5045968;28;20039;-68
2021/10/28 21:51:49;;;;;;;53.03;16.30;;;5.90;99.90;;;;;;5041533;28;20033;-68
2021/10/28 22:00:19;;;;;;;72.18;13.55;;;6.00;99.90;;;;;;5047783;28;20131;-68